Terminal Aerodrome Forecast
Issued by NWS Twin Cities, MN

Home | Current Version | Previous Version | Text Only | Print | Product List | Glossary On
Versions: 1 2 3 4 5 6 7 8 9 10 11 12
159
FTUS43 KMPX 191731
TAFSTC
TAF
KSTC 191731Z 1918/2018 18012KT P6SM FEW250
     FM200100 17007KT P6SM SKC
     FM201600 17015G22KT P6SM FEW200=

USA.gov is the U.S. government's official web portal to all federal, state and local government web resources and services.